createdAt,value
2024-02-04T05:15:21.268Z,0.00
2024-02-04T05:16:21.244Z,0.00
2024-02-04T05:17:21.241Z,0.00
2024-02-04T05:18:21.294Z,0.00
2024-02-04T05:19:21.374Z,0.00
2024-02-04T05:20:21.185Z,0.00
2024-02-04T05:21:21.210Z,0.00
2024-02-04T05:22:21.176Z,0.00
2024-02-04T05:23:21.158Z,0.00
2024-02-04T05:24:21.133Z,0.00
2024-02-04T05:25:21.128Z,0.00
2024-02-04T05:26:21.127Z,0.00
2024-02-04T05:27:21.097Z,0.00
2024-02-04T05:28:21.132Z,0.00
2024-02-04T05:29:21.089Z,0.00
2024-02-04T05:30:21.076Z,0.00
2024-02-04T05:31:21.066Z,0.00
2024-02-04T05:32:21.062Z,0.00
2024-02-04T05:33:21.026Z,0.00
2024-02-04T05:34:21.203Z,0.00
2024-02-04T05:35:21.033Z,0.00
2024-02-04T05:36:21.002Z,0.00
2024-02-04T05:37:20.995Z,0.00
2024-02-04T05:38:20.959Z,0.00
2024-02-04T05:39:20.958Z,0.00
2024-02-04T05:40:20.948Z,0.00
2024-02-04T05:41:20.924Z,0.00
2024-02-04T05:42:20.917Z,0.00
2024-02-04T05:43:20.969Z,0.00
2024-02-04T05:44:20.899Z,0.00
2024-02-04T05:45:20.909Z,0.00
2024-02-04T05:46:20.899Z,0.00
2024-02-04T05:47:20.848Z,0.00
2024-02-04T05:48:20.950Z,0.00
2024-02-04T05:49:20.967Z,0.00
2024-02-04T05:50:20.946Z,0.00
2024-02-04T05:51:20.803Z,0.00
2024-02-04T05:52:20.791Z,0.00
2024-02-04T05:53:20.780Z,0.00
2024-02-04T05:54:20.778Z,0.00
2024-02-04T05:55:20.806Z,0.00
2024-02-04T05:56:20.728Z,0.00
2024-02-04T05:57:20.724Z,0.00
2024-02-04T05:58:20.697Z,0.00
2024-02-04T05:59:20.705Z,0.00
2024-02-04T06:00:20.700Z,0.00
2024-02-04T06:01:20.666Z,0.00
2024-02-04T06:02:20.792Z,0.00
2024-02-04T06:03:20.756Z,0.00
2024-02-04T06:04:20.718Z,0.00
2024-02-04T06:05:20.607Z,0.00
2024-02-04T06:06:20.752Z,0.00
2024-02-04T06:07:20.744Z,0.00
2024-02-04T06:08:20.583Z,0.00
2024-02-04T06:09:20.587Z,0.00
2024-02-04T06:10:20.543Z,0.00
2024-02-04T06:11:20.532Z,0.00
2024-02-04T06:12:20.514Z,0.00
2024-02-04T06:13:20.516Z,0.00
2024-02-04T06:14:20.485Z,0.00
2024-02-04T06:15:20.503Z,0.00
2024-02-04T06:16:20.464Z,0.00
2024-02-04T06:17:20.479Z,0.00
2024-02-04T06:18:20.463Z,0.00
2024-02-04T06:19:20.544Z,0.00
2024-02-04T06:20:20.426Z,0.00
2024-02-04T06:21:20.403Z,0.00
2024-02-04T06:22:20.396Z,0.00
2024-02-04T06:23:20.403Z,0.00
2024-02-04T06:24:20.361Z,0.00
2024-02-04T06:25:20.429Z,0.00
2024-02-04T06:26:20.348Z,0.00
2024-02-04T06:27:20.336Z,0.00
2024-02-04T06:28:20.334Z,0.00
2024-02-04T06:29:20.342Z,0.00
2024-02-04T06:30:20.286Z,0.00
2024-02-04T06:31:20.291Z,0.00
2024-02-04T06:32:20.274Z,0.00
2024-02-04T06:33:20.415Z,0.00
2024-02-04T06:34:20.299Z,0.00
2024-02-04T06:35:20.226Z,0.00
2024-02-04T06:36:20.265Z,0.00
2024-02-04T06:37:20.283Z,0.00
2024-02-04T06:38:20.237Z,0.00
2024-02-04T06:39:20.172Z,0.00
2024-02-04T06:40:20.159Z,0.00
2024-02-04T06:41:20.171Z,0.00
2024-02-04T06:42:20.138Z,0.00
2024-02-04T06:43:20.163Z,0.00
2024-02-04T06:44:20.115Z,0.00
2024-02-04T06:45:20.129Z,0.00
2024-02-04T06:46:20.126Z,0.00
2024-02-04T06:47:20.094Z,0.00
2024-02-04T06:48:20.093Z,0.00
2024-02-04T06:49:20.320Z,0.00
2024-02-04T06:50:20.042Z,0.00
2024-02-04T06:51:20.044Z,0.00
2024-02-04T06:52:20.026Z,0.00
2024-02-04T06:53:20.003Z,0.00
2024-02-04T06:54:19.986Z,0.00
2024-02-04T06:55:20.003Z,0.00
2024-02-04T06:56:19.964Z,0.00
2024-02-04T06:57:20.002Z,0.00
2024-02-04T06:58:19.942Z,0.00
2024-02-04T06:59:19.935Z,0.00
2024-02-04T07:00:19.936Z,0.00
2024-02-04T07:01:19.964Z,0.00
2024-02-04T07:02:19.878Z,0.00
2024-02-04T07:03:19.922Z,0.00
2024-02-04T07:04:20.005Z,0.00
2024-02-04T07:05:19.848Z,0.00
2024-02-04T07:06:19.878Z,0.00
2024-02-04T07:07:19.865Z,0.00
2024-02-04T07:08:19.807Z,0.00
2024-02-04T07:09:19.816Z,0.00
2024-02-04T07:10:19.809Z,0.00
2024-02-04T07:11:19.764Z,0.00
2024-02-04T07:12:19.746Z,0.00
2024-02-04T07:13:19.830Z,0.00
2024-02-04T07:14:19.733Z,0.00
2024-02-04T07:15:19.712Z,0.00
2024-02-04T07:16:19.749Z,0.00
2024-02-04T07:17:19.688Z,0.00
2024-02-04T07:18:19.678Z,0.00
2024-02-04T07:19:19.718Z,0.00
2024-02-04T07:20:19.672Z,0.00
2024-02-04T07:21:19.638Z,0.00
2024-02-04T07:22:19.618Z,0.00
2024-02-04T07:23:19.630Z,0.00
2024-02-04T07:24:19.588Z,0.00
2024-02-04T07:25:26.641Z,0.00
2024-02-04T07:26:19.587Z,0.00
2024-02-04T07:27:19.577Z,0.00
2024-02-04T07:28:19.570Z,0.00
2024-02-04T07:29:19.539Z,0.00
2024-02-04T07:30:19.508Z,0.00
2024-02-04T07:31:19.501Z,0.00
2024-02-04T07:32:19.490Z,5.62
2024-02-04T07:33:19.566Z,5.62
2024-02-04T07:34:19.518Z,5.62
2024-02-04T07:35:19.471Z,5.62
2024-02-04T07:36:19.457Z,5.62
2024-02-04T07:37:19.442Z,5.62
2024-02-04T07:38:19.418Z,5.62
2024-02-04T07:39:19.415Z,5.62
2024-02-04T07:40:19.513Z,5.62
2024-02-04T07:41:19.393Z,0.00
2024-02-04T07:42:19.374Z,0.00
2024-02-04T07:43:19.416Z,0.00
2024-02-04T07:44:19.347Z,0.00
2024-02-04T07:45:19.341Z,0.00
2024-02-04T07:46:19.394Z,0.00
2024-02-04T07:47:19.304Z,5.62
2024-02-04T07:48:19.318Z,5.62
2024-02-04T07:49:19.361Z,5.62
2024-02-04T07:50:19.363Z,5.62
2024-02-04T07:51:19.273Z,5.62
2024-02-04T07:52:19.261Z,5.62
2024-02-04T07:53:19.283Z,5.62
2024-02-04T07:54:19.204Z,5.62
2024-02-04T07:55:19.277Z,11.25
2024-02-04T07:56:19.202Z,11.25
2024-02-04T07:57:19.182Z,11.25
2024-02-04T07:58:19.151Z,11.25
2024-02-04T07:59:19.150Z,11.25
2024-02-04T08:00:19.152Z,11.25
2024-02-04T08:01:19.255Z,5.62
2024-02-04T08:02:19.114Z,11.25
2024-02-04T08:03:19.182Z,11.25
2024-02-04T08:04:19.206Z,11.25
2024-02-04T08:05:19.191Z,11.25
2024-02-04T08:06:19.068Z,11.25
2024-02-04T08:07:19.271Z,16.88
2024-02-04T08:08:19.080Z,11.25
2024-02-04T08:09:19.043Z,11.25
2024-02-04T08:10:19.145Z,11.25
2024-02-04T08:11:19.131Z,11.25
2024-02-04T08:12:18.980Z,5.62
2024-02-04T08:13:19.013Z,11.25
2024-02-04T08:14:18.965Z,11.25
2024-02-04T08:15:18.941Z,11.25
2024-02-04T08:16:19.043Z,11.25
2024-02-04T08:17:18.912Z,11.25
2024-02-04T08:18:19.003Z,11.25
2024-02-04T08:19:19.002Z,11.25
2024-02-04T08:20:18.890Z,11.25
2024-02-04T08:21:18.881Z,11.25
2024-02-04T08:22:18.908Z,11.25
2024-02-04T08:23:18.888Z,11.25
2024-02-04T08:24:18.834Z,11.25
2024-02-04T08:25:18.839Z,11.25
2024-02-04T08:26:18.799Z,11.25
2024-02-04T08:27:18.782Z,11.25
2024-02-04T08:28:18.822Z,11.25
2024-02-04T08:29:18.758Z,11.25
2024-02-04T08:30:18.743Z,11.25
2024-02-04T08:31:18.743Z,11.25
2024-02-04T08:32:18.744Z,11.25
2024-02-04T08:33:18.819Z,11.25
2024-02-04T08:34:18.771Z,11.25
2024-02-04T08:35:18.714Z,11.25
2024-02-04T08:36:18.665Z,11.25
2024-02-04T08:37:18.780Z,11.25
2024-02-04T08:38:18.640Z,11.25
2024-02-04T08:39:18.636Z,11.25
2024-02-04T08:40:18.644Z,11.25
2024-02-04T08:41:18.596Z,11.25
2024-02-04T08:42:18.610Z,11.25
2024-02-04T08:43:18.615Z,11.25
2024-02-04T08:44:26.871Z,11.25
2024-02-04T08:45:19.554Z,11.25
2024-02-04T08:46:18.652Z,16.88
2024-02-04T08:47:18.591Z,16.88
2024-02-04T08:48:18.518Z,16.88
2024-02-04T08:49:18.687Z,16.88
2024-02-04T08:50:18.497Z,22.50
2024-02-04T08:51:18.549Z,28.12
2024-02-04T08:52:18.533Z,33.75
2024-02-04T08:53:18.439Z,45.00
2024-02-04T08:54:18.449Z,56.25
2024-02-04T08:55:18.487Z,50.62
2024-02-04T08:56:18.425Z,45.00
2024-02-04T08:57:18.395Z,39.38
2024-02-04T08:58:18.402Z,33.75
2024-02-04T08:59:18.362Z,22.50
2024-02-04T09:00:18.375Z,22.50
2024-02-04T09:01:18.434Z,22.50
2024-02-04T09:02:18.332Z,16.88
2024-02-04T09:03:18.358Z,16.88
2024-02-04T09:04:18.384Z,16.88
2024-02-04T09:05:18.313Z,22.50
2024-02-04T09:06:18.316Z,22.50
2024-02-04T09:07:18.490Z,28.12
2024-02-04T09:08:18.255Z,28.12
2024-02-04T09:09:18.240Z,22.50
2024-02-04T09:10:18.305Z,11.25
2024-02-04T09:11:18.214Z,11.25
2024-02-04T09:12:18.234Z,11.25
2024-02-04T09:13:18.259Z,16.88
2024-02-04T09:14:18.221Z,11.25
2024-02-04T09:15:18.173Z,11.25
2024-02-04T09:16:18.209Z,5.62
2024-02-04T09:17:18.214Z,5.62
2024-02-04T09:18:18.272Z,11.25
2024-02-04T09:19:18.421Z,11.25
2024-02-04T09:20:18.265Z,11.25
2024-02-04T09:21:18.347Z,22.50
2024-02-04T09:22:18.092Z,33.75
2024-02-04T09:23:18.051Z,28.12
2024-02-04T09:24:18.116Z,22.50
2024-02-04T09:25:18.170Z,22.50
2024-02-04T09:26:19.727Z,16.88
2024-02-04T09:27:18.058Z,16.88
2024-02-04T09:28:18.050Z,16.88
2024-02-04T09:29:18.025Z,16.88
2024-02-04T09:30:18.135Z,28.12
2024-02-04T09:31:18.135Z,56.25
2024-02-04T09:32:19.395Z,78.75
2024-02-04T09:33:18.087Z,84.38
2024-02-04T09:34:20.964Z,84.38
2024-02-04T09:35:18.170Z,67.50
2024-02-04T09:36:18.503Z,67.50
2024-02-04T09:37:17.994Z,67.50
2024-02-04T09:38:18.087Z,61.88
2024-02-04T09:39:17.900Z,56.25
2024-02-04T09:40:17.931Z,50.62
2024-02-04T09:41:17.871Z,45.00
2024-02-04T09:42:17.870Z,45.00
2024-02-04T09:43:17.861Z,45.00
2024-02-04T09:44:19.353Z,39.38
2024-02-04T09:45:17.758Z,39.38
2024-02-04T09:46:17.851Z,33.75
2024-02-04T09:47:17.777Z,28.12
2024-02-04T09:48:17.816Z,33.75
2024-02-04T09:49:18.113Z,33.75
2024-02-04T09:50:20.784Z,33.75
2024-02-04T09:51:17.705Z,28.12
2024-02-04T09:52:17.752Z,28.12
2024-02-04T09:53:17.651Z,33.75
2024-02-04T09:54:17.649Z,39.38
2024-02-04T09:55:17.739Z,50.62
2024-02-04T09:56:19.394Z,50.62
2024-02-04T09:57:17.675Z,45.00
2024-02-04T09:58:17.639Z,45.00
2024-02-04T09:59:17.615Z,50.62
2024-02-04T10:00:17.569Z,50.62
2024-02-04T10:01:17.719Z,56.25
2024-02-04T10:02:21.620Z,73.12
2024-02-04T10:03:17.550Z,84.38
2024-02-04T10:04:17.714Z,101.25
2024-02-04T10:05:17.743Z,112.50
2024-02-04T10:06:17.693Z,123.75
2024-02-04T10:07:17.585Z,140.62
2024-02-04T10:08:21.432Z,146.25
2024-02-04T10:09:17.636Z,157.50
2024-02-04T10:10:17.592Z,168.75
2024-02-04T10:11:17.425Z,174.38
2024-02-04T10:12:17.430Z,180.00
2024-02-04T10:13:17.410Z,174.38
2024-02-04T10:14:18.594Z,174.38
2024-02-04T10:15:17.419Z,180.00
2024-02-04T10:16:17.395Z,185.62
2024-02-04T10:17:17.351Z,180.00
2024-02-04T10:18:17.376Z,213.75
2024-02-04T10:19:17.505Z,213.75
2024-02-04T10:20:20.570Z,225.00
2024-02-04T10:21:17.300Z,225.00
2024-02-04T10:22:17.362Z,270.00
2024-02-04T10:23:17.274Z,298.12
2024-02-04T10:24:17.277Z,157.50
2024-02-04T10:25:17.349Z,135.00
2024-02-04T10:26:17.232Z,123.75
2024-02-04T10:27:26.144Z,95.62
2024-02-04T10:28:18.238Z,67.50
2024-02-04T10:29:17.214Z,56.25
2024-02-04T10:30:17.198Z,61.88
2024-02-04T10:31:17.457Z,56.25
2024-02-04T10:32:22.861Z,45.00
2024-02-04T10:33:18.226Z,39.38
2024-02-04T10:34:17.299Z,33.75
2024-02-04T10:35:17.125Z,33.75
2024-02-04T10:36:17.096Z,33.75
2024-02-04T10:37:17.130Z,39.38
2024-02-04T10:38:17.088Z,45.00
2024-02-04T10:39:17.064Z,67.50
2024-02-04T10:40:17.163Z,73.12
2024-02-04T10:41:17.035Z,78.75
2024-02-04T10:42:17.024Z,78.75
2024-02-04T10:43:17.116Z,67.50
2024-02-04T10:44:16.993Z,56.25
2024-02-04T10:45:16.995Z,56.25
2024-02-04T10:46:17.015Z,56.25
2024-02-04T10:47:16.964Z,45.00
2024-02-04T10:48:17.050Z,39.38
2024-02-04T10:49:17.093Z,39.38
2024-02-04T10:50:16.910Z,28.12
2024-02-04T10:51:17.074Z,39.38
2024-02-04T10:52:16.909Z,39.38
2024-02-04T10:53:16.881Z,33.75
2024-02-04T10:54:16.885Z,22.50
2024-02-04T10:55:16.943Z,22.50
2024-02-04T10:56:16.880Z,22.50
2024-02-04T10:57:16.833Z,16.88
2024-02-04T10:58:16.877Z,11.25
2024-02-04T10:59:16.803Z,16.88
2024-02-04T11:00:16.777Z,16.88
2024-02-04T11:01:16.835Z,16.88
2024-02-04T11:02:16.770Z,22.50
2024-02-04T11:03:16.734Z,28.12
2024-02-04T11:04:16.834Z,39.38
2024-02-04T11:05:16.715Z,56.25
2024-02-04T11:06:16.776Z,56.25
2024-02-04T11:07:16.787Z,56.25
2024-02-04T11:08:16.750Z,50.62
2024-02-04T11:09:16.665Z,56.25
2024-02-04T11:10:16.794Z,56.25
2024-02-04T11:11:16.657Z,61.88
2024-02-04T11:12:16.625Z,56.25
2024-02-04T11:13:16.667Z,45.00
2024-02-04T11:14:16.584Z,45.00
2024-02-04T11:15:16.598Z,39.38
2024-02-04T11:16:16.617Z,39.38
2024-02-04T11:17:16.556Z,45.00
2024-02-04T11:18:16.694Z,50.62
2024-02-04T11:19:17.954Z,56.25
2024-02-04T11:20:16.577Z,56.25
2024-02-04T11:21:16.513Z,56.25
2024-02-04T11:22:16.599Z,61.88
2024-02-04T11:23:16.466Z,67.50
2024-02-04T11:24:16.467Z,73.12
2024-02-04T11:25:16.548Z,84.38
2024-02-04T11:26:16.428Z,78.75
2024-02-04T11:27:16.436Z,73.12
2024-02-04T11:28:16.673Z,73.12
2024-02-04T11:29:16.440Z,73.12
2024-02-04T11:30:16.702Z,73.12
2024-02-04T11:31:16.554Z,61.88
2024-02-04T11:32:16.568Z,50.62
2024-02-04T11:33:16.478Z,45.00
2024-02-04T11:34:16.703Z,45.00
2024-02-04T11:35:16.637Z,45.00
2024-02-04T11:36:16.572Z,45.00
2024-02-04T11:37:16.490Z,50.62
2024-02-04T11:38:16.413Z,56.25
2024-02-04T11:39:16.646Z,56.25
2024-02-04T11:40:16.330Z,61.88
2024-02-04T11:41:16.233Z,56.25
2024-02-04T11:42:16.242Z,56.25
2024-02-04T11:43:16.342Z,56.25
2024-02-04T11:44:16.270Z,50.62
2024-02-04T11:45:16.214Z,50.62
2024-02-04T11:46:16.214Z,50.62
2024-02-04T11:47:16.279Z,45.00
2024-02-04T11:48:16.275Z,45.00
2024-02-04T11:49:16.351Z,50.62
2024-02-04T11:50:16.361Z,50.62
2024-02-04T11:51:16.198Z,50.62
2024-02-04T11:52:16.153Z,56.25
2024-02-04T11:53:16.175Z,50.62
2024-02-04T11:54:16.083Z,45.00
2024-02-04T11:55:16.114Z,45.00
2024-02-04T11:56:16.116Z,45.00
2024-02-04T11:57:16.064Z,45.00
2024-02-04T11:58:16.148Z,39.38
2024-02-04T11:59:15.999Z,39.38
2024-02-04T12:00:16.006Z,39.38
2024-02-04T12:01:16.021Z,39.38
2024-02-04T12:02:15.970Z,39.38
2024-02-04T12:03:15.939Z,33.75
2024-02-04T12:04:15.968Z,28.12
2024-02-04T12:05:15.978Z,28.12
2024-02-04T12:06:15.920Z,28.12
2024-02-04T12:07:15.943Z,28.12
2024-02-04T12:08:15.988Z,28.12
2024-02-04T12:09:15.858Z,28.12
2024-02-04T12:10:15.926Z,28.12
2024-02-04T12:11:15.863Z,28.12
2024-02-04T12:12:15.821Z,28.12
2024-02-04T12:13:15.826Z,28.12
2024-02-04T12:14:15.785Z,28.12
2024-02-04T12:15:15.813Z,28.12
2024-02-04T12:16:15.842Z,28.12
2024-02-04T12:17:15.746Z,33.75
2024-02-04T12:18:16.222Z,39.38
2024-02-04T12:19:15.876Z,33.75
2024-02-04T12:20:15.835Z,39.38
2024-02-04T12:21:15.720Z,33.75
2024-02-04T12:22:15.743Z,33.75
2024-02-04T12:23:15.672Z,33.75
2024-02-04T12:24:15.659Z,33.75
2024-02-04T12:25:15.681Z,39.38
2024-02-04T12:26:15.693Z,56.25
2024-02-04T12:27:15.612Z,56.25
2024-02-04T12:28:15.754Z,50.62
2024-02-04T12:29:15.593Z,45.00
2024-02-04T12:30:15.623Z,39.38
2024-02-04T12:31:15.597Z,39.38
2024-02-04T12:32:15.658Z,45.00
2024-02-04T12:33:15.606Z,50.62
2024-02-04T12:34:15.743Z,45.00
2024-02-04T12:35:15.568Z,50.62
2024-02-04T12:36:15.552Z,56.25
2024-02-04T12:37:15.530Z,39.38
2024-02-04T12:38:15.509Z,45.00
2024-02-04T12:39:15.570Z,50.62
2024-02-04T12:40:15.530Z,45.00
2024-02-04T12:41:15.436Z,45.00
2024-02-04T12:42:15.432Z,56.25
2024-02-04T12:43:15.466Z,56.25
2024-02-04T12:44:15.413Z,56.25
2024-02-04T12:45:15.386Z,56.25
2024-02-04T12:46:15.418Z,50.62
2024-02-04T12:47:15.362Z,61.88
2024-02-04T12:48:15.399Z,56.25
2024-02-04T12:49:15.415Z,56.25
2024-02-04T12:50:15.437Z,45.00
2024-02-04T12:51:15.314Z,50.62
2024-02-04T12:52:15.400Z,50.62
2024-02-04T12:53:15.289Z,56.25
2024-02-04T12:54:15.272Z,61.88
2024-02-04T12:55:15.294Z,61.88
2024-02-04T12:56:15.251Z,56.25
2024-02-04T12:57:15.231Z,61.88
2024-02-04T12:58:15.270Z,61.88
2024-02-04T12:59:15.204Z,61.88
2024-02-04T13:00:15.214Z,50.62
2024-02-04T13:01:15.238Z,50.62
2024-02-04T13:02:15.183Z,50.62
2024-02-04T13:03:15.196Z,50.62
2024-02-04T13:04:15.216Z,56.25
2024-02-04T13:05:15.170Z,56.25
2024-02-04T13:06:15.192Z,56.25
2024-02-04T13:07:15.270Z,50.62
2024-02-04T13:08:15.097Z,45.00
2024-02-04T13:09:15.082Z,45.00
2024-02-04T13:10:15.137Z,45.00
2024-02-04T13:11:15.056Z,39.38
2024-02-04T13:12:15.053Z,33.75
2024-02-04T13:13:15.196Z,33.75
2024-02-04T13:14:15.028Z,39.38
2024-02-04T13:15:15.004Z,45.00
2024-02-04T13:16:15.149Z,50.62
2024-02-04T13:17:15.000Z,61.88
2024-02-04T13:18:14.968Z,56.25
2024-02-04T13:19:15.009Z,56.25
2024-02-04T13:20:14.938Z,39.38
2024-02-04T13:21:15.053Z,39.38
2024-02-04T13:22:14.938Z,33.75
2024-02-04T13:23:14.892Z,33.75
2024-02-04T13:24:14.882Z,39.38
2024-02-04T13:25:22.093Z,45.00
2024-02-04T13:26:14.920Z,45.00
2024-02-04T13:27:14.843Z,39.38
2024-02-04T13:28:14.890Z,33.75
2024-02-04T13:29:14.821Z,33.75
2024-02-04T13:30:14.815Z,39.38
2024-02-04T13:31:14.934Z,45.00
2024-02-04T13:32:14.777Z,39.38
2024-02-04T13:33:14.848Z,50.62
2024-02-04T13:34:15.682Z,61.88
2024-02-04T13:35:19.678Z,78.75
2024-02-04T13:36:15.750Z,78.75
2024-02-04T13:37:14.763Z,78.75
2024-02-04T13:38:14.701Z,84.38
2024-02-04T13:39:14.686Z,73.12
2024-02-04T13:40:14.751Z,73.12
2024-02-04T13:41:14.664Z,73.12
2024-02-04T13:42:14.660Z,78.75
2024-02-04T13:43:14.780Z,73.12
2024-02-04T13:44:14.662Z,84.38
2024-02-04T13:45:14.619Z,67.50
2024-02-04T13:46:14.636Z,61.88
2024-02-04T13:47:14.580Z,56.25
2024-02-04T13:48:14.628Z,50.62
2024-02-04T13:49:14.750Z,39.38
2024-02-04T13:50:14.726Z,39.38
2024-02-04T13:51:16.332Z,45.00
2024-02-04T13:52:14.593Z,50.62
2024-02-04T13:53:14.502Z,56.25
2024-02-04T13:54:14.514Z,56.25
2024-02-04T13:55:14.669Z,56.25
2024-02-04T13:56:14.464Z,50.62
2024-02-04T13:57:14.446Z,61.88
2024-02-04T13:58:14.515Z,45.00
2024-02-04T13:59:14.437Z,45.00
2024-02-04T14:00:14.416Z,45.00
2024-02-04T14:01:14.544Z,45.00
2024-02-04T14:02:14.459Z,39.38
2024-02-04T14:03:14.379Z,39.38
2024-02-04T14:04:14.438Z,33.75
2024-02-04T14:05:14.468Z,45.00
2024-02-04T14:06:14.366Z,56.25
2024-02-04T14:07:14.388Z,50.62
2024-02-04T14:08:14.306Z,50.62
2024-02-04T14:09:14.305Z,56.25
2024-02-04T14:10:14.349Z,50.62
2024-02-04T14:11:14.252Z,39.38
2024-02-04T14:12:14.260Z,33.75
2024-02-04T14:13:14.312Z,45.00
2024-02-04T14:14:14.216Z,33.75
2024-02-04T14:15:14.217Z,28.12
2024-02-04T14:16:14.287Z,33.75
2024-02-04T14:17:14.185Z,39.38
2024-02-04T14:18:14.257Z,33.75
2024-02-04T14:19:14.226Z,39.38
2024-02-04T14:20:14.289Z,39.38
2024-02-04T14:21:14.120Z,45.00
2024-02-04T14:22:14.295Z,56.25
2024-02-04T14:23:14.102Z,50.62
2024-02-04T14:24:14.091Z,33.75
2024-02-04T14:25:14.213Z,33.75
2024-02-04T14:26:14.059Z,28.12
2024-02-04T14:27:14.057Z,28.12
2024-02-04T14:28:14.122Z,28.12
2024-02-04T14:29:14.025Z,28.12
2024-02-04T14:30:14.017Z,33.75
2024-02-04T14:31:14.167Z,33.75
2024-02-04T14:32:14.009Z,39.38
2024-02-04T14:33:13.964Z,45.00
2024-02-04T14:34:14.070Z,39.38
2024-02-04T14:35:14.003Z,39.38
2024-02-04T14:36:13.948Z,39.38
2024-02-04T14:37:15.082Z,39.38
2024-02-04T14:38:13.905Z,39.38
2024-02-04T14:39:13.889Z,39.38
2024-02-04T14:40:14.023Z,45.00
2024-02-04T14:41:13.869Z,39.38
2024-02-04T14:42:13.871Z,33.75
2024-02-04T14:43:13.920Z,33.75
2024-02-04T14:44:13.841Z,33.75
2024-02-04T14:45:13.902Z,33.75
2024-02-04T14:46:13.918Z,28.12
2024-02-04T14:47:13.783Z,28.12
2024-02-04T14:48:13.852Z,28.12
2024-02-04T14:49:13.915Z,22.50
2024-02-04T14:50:13.783Z,16.88
2024-02-04T14:51:13.731Z,22.50
2024-02-04T14:52:13.806Z,22.50
2024-02-04T14:53:13.716Z,22.50
2024-02-04T14:54:13.720Z,22.50
2024-02-04T14:55:13.820Z,16.88
2024-02-04T14:56:13.671Z,16.88
2024-02-04T14:57:13.654Z,11.25
2024-02-04T14:58:13.735Z,16.88
2024-02-04T14:59:21.528Z,11.25
2024-02-04T15:00:14.646Z,11.25
2024-02-04T15:01:13.677Z,11.25
2024-02-04T15:02:13.715Z,11.25
2024-02-04T15:03:13.573Z,16.88
2024-02-04T15:04:13.670Z,16.88
2024-02-04T15:05:13.702Z,16.88
2024-02-04T15:06:13.562Z,16.88
2024-02-04T15:07:13.547Z,16.88
2024-02-04T15:08:13.522Z,16.88
2024-02-04T15:09:13.549Z,16.88
2024-02-04T15:10:13.521Z,11.25
2024-02-04T15:11:13.468Z,16.88
2024-02-04T15:12:13.453Z,22.50
2024-02-04T15:13:13.510Z,22.50
2024-02-04T15:14:13.436Z,16.88
2024-02-04T15:15:13.408Z,16.88
2024-02-04T15:16:13.494Z,22.50
2024-02-04T15:17:13.382Z,16.88
2024-02-04T15:18:13.417Z,16.88
2024-02-04T15:19:13.446Z,11.25
2024-02-04T15:20:17.277Z,11.25
2024-02-04T15:21:14.323Z,11.25
2024-02-04T15:22:13.333Z,11.25
2024-02-04T15:23:13.311Z,11.25
2024-02-04T15:24:13.301Z,11.25
2024-02-04T15:25:13.328Z,5.62
2024-02-04T15:26:14.892Z,5.62
2024-02-04T15:27:13.262Z,5.62
2024-02-04T15:28:13.286Z,5.62
2024-02-04T15:29:13.213Z,5.62
2024-02-04T15:30:13.215Z,5.62
2024-02-04T15:31:13.220Z,5.62
2024-02-04T15:32:15.360Z,5.62
2024-02-04T15:33:13.226Z,5.62
2024-02-04T15:34:13.322Z,5.62
2024-02-04T15:35:13.136Z,5.62
2024-02-04T15:36:13.136Z,5.62
2024-02-04T15:37:13.174Z,5.62
2024-02-04T15:38:16.190Z,5.62
2024-02-04T15:39:14.085Z,5.62
2024-02-04T15:40:13.153Z,0.00
2024-02-04T15:41:13.065Z,5.62
2024-02-04T15:42:13.052Z,0.00
2024-02-04T15:43:13.077Z,5.62
2024-02-04T15:44:16.385Z,5.62
2024-02-04T15:45:13.001Z,5.62
2024-02-04T15:46:13.097Z,5.62
2024-02-04T15:47:12.985Z,5.62
2024-02-04T15:48:12.993Z,5.62
2024-02-04T15:49:13.105Z,0.00
2024-02-04T15:50:12.961Z,5.62
2024-02-04T15:51:12.944Z,0.00
2024-02-04T15:52:12.996Z,0.00
2024-02-04T15:53:12.900Z,5.62
2024-02-04T15:54:12.890Z,0.00
2024-02-04T15:55:12.968Z,0.00
2024-02-04T15:56:12.887Z,0.00
2024-02-04T15:57:12.857Z,0.00
2024-02-04T15:58:12.903Z,0.00
2024-02-04T15:59:12.820Z,0.00
2024-02-04T16:00:12.853Z,0.00
2024-02-04T16:01:12.841Z,0.00
2024-02-04T16:02:12.834Z,0.00
2024-02-04T16:03:12.767Z,0.00
2024-02-04T16:04:12.908Z,0.00
2024-02-04T16:05:12.803Z,0.00
2024-02-04T16:06:12.776Z,0.00
2024-02-04T16:07:12.713Z,0.00
2024-02-04T16:08:12.718Z,0.00
2024-02-04T16:09:12.694Z,0.00
2024-02-04T16:10:12.713Z,0.00
2024-02-04T16:11:12.675Z,0.00
2024-02-04T16:12:12.647Z,0.00
2024-02-04T16:13:12.711Z,0.00
2024-02-04T16:14:12.648Z,0.00
2024-02-04T16:15:12.652Z,0.00
2024-02-04T16:16:12.633Z,0.00
2024-02-04T16:17:12.588Z,0.00
2024-02-04T16:18:12.652Z,0.00
2024-02-04T16:19:12.639Z,0.00
2024-02-04T16:20:12.685Z,0.00
2024-02-04T16:21:12.530Z,0.00
2024-02-04T16:22:12.575Z,0.00
2024-02-04T16:23:12.511Z,0.00
2024-02-04T16:24:12.501Z,0.00
2024-02-04T16:25:12.540Z,0.00
2024-02-04T16:26:12.467Z,0.00
2024-02-04T16:27:12.467Z,0.00
2024-02-04T16:28:12.523Z,0.00
2024-02-04T16:29:12.431Z,0.00
2024-02-04T16:30:12.414Z,0.00
2024-02-04T16:31:12.435Z,0.00
2024-02-04T16:32:12.765Z,0.00
2024-02-04T16:33:12.436Z,0.00
2024-02-04T16:34:12.517Z,0.00
2024-02-04T16:35:12.421Z,0.00
2024-02-04T16:36:12.340Z,0.00
2024-02-04T16:37:12.475Z,0.00
2024-02-04T16:38:12.306Z,0.00
2024-02-04T16:39:12.291Z,0.00
2024-02-04T16:40:12.398Z,0.00
2024-02-04T16:41:12.259Z,0.00
2024-02-04T16:42:12.290Z,0.00
2024-02-04T16:43:12.328Z,0.00
2024-02-04T16:44:12.233Z,0.00
2024-02-04T16:45:12.204Z,0.00
2024-02-04T16:46:12.338Z,0.00
2024-02-04T16:47:12.196Z,0.00
2024-02-04T16:48:12.246Z,0.00
2024-02-04T16:49:13.550Z,0.00
2024-02-04T16:50:12.299Z,0.00
2024-02-04T16:51:12.138Z,0.00
2024-02-04T16:52:12.246Z,0.00
2024-02-04T16:53:12.106Z,0.00
2024-02-04T16:54:12.102Z,0.00
2024-02-04T16:55:12.131Z,0.00
2024-02-04T16:56:12.101Z,0.00
2024-02-04T16:57:12.045Z,0.00
2024-02-04T16:58:12.099Z,0.00
2024-02-04T16:59:12.022Z,0.00
2024-02-04T17:00:12.027Z,0.00
2024-02-04T17:01:12.095Z,0.00
2024-02-04T17:02:12.053Z,0.00
2024-02-04T17:03:12.002Z,0.00
2024-02-04T17:04:12.000Z,0.00
2024-02-04T17:05:12.068Z,0.00
2024-02-04T17:06:12.008Z,0.00
2024-02-04T17:07:12.010Z,0.00
2024-02-04T17:08:11.918Z,0.00
2024-02-04T17:09:11.893Z,0.00
2024-02-04T17:10:11.947Z,0.00
2024-02-04T17:11:11.868Z,0.00
2024-02-04T17:12:11.872Z,0.00
2024-02-04T17:13:11.914Z,0.00
2024-02-04T17:14:11.850Z,0.00
2024-02-04T17:15:11.859Z,0.00
2024-02-04T17:16:11.839Z,0.00
2024-02-04T17:17:11.802Z,0.00
2024-02-04T17:18:11.828Z,0.00
2024-02-04T17:19:11.868Z,0.00
2024-02-04T17:20:11.800Z,0.00
2024-02-04T17:21:11.738Z,0.00
2024-02-04T17:22:11.755Z,0.00
2024-02-04T17:23:11.742Z,0.00
2024-02-04T17:24:11.721Z,0.00
2024-02-04T17:25:11.724Z,0.00
2024-02-04T17:26:11.697Z,0.00
2024-02-04T17:27:11.683Z,0.00
2024-02-04T17:28:11.745Z,0.00
2024-02-04T17:29:11.628Z,0.00
2024-02-04T17:30:11.671Z,0.00
2024-02-04T17:31:11.645Z,0.00
2024-02-04T17:32:11.603Z,0.00
2024-02-04T17:33:11.686Z,0.00
2024-02-04T17:34:11.623Z,0.00
2024-02-04T17:35:11.717Z,0.00
2024-02-04T17:36:11.546Z,0.00
2024-02-04T17:37:11.621Z,0.00
2024-02-04T17:38:11.531Z,0.00
2024-02-04T17:39:11.547Z,0.00
2024-02-04T17:40:11.617Z,0.00
2024-02-04T17:41:11.495Z,0.00
2024-02-04T17:42:11.498Z,0.00
2024-02-04T17:43:11.504Z,0.00
2024-02-04T17:44:11.442Z,0.00
2024-02-04T17:45:11.443Z,0.00
2024-02-04T17:46:11.490Z,0.00
2024-02-04T17:47:11.510Z,0.00
2024-02-04T17:48:11.403Z,0.00
2024-02-04T17:49:11.459Z,0.00
2024-02-04T17:50:11.447Z,0.00
2024-02-04T17:51:17.602Z,0.00
2024-02-04T17:52:12.487Z,0.00
2024-02-04T17:53:11.332Z,0.00
2024-02-04T17:54:11.310Z,0.00
2024-02-04T17:55:11.372Z,0.00
2024-02-04T17:56:11.302Z,0.00
2024-02-04T17:57:11.274Z,0.00
2024-02-04T17:58:11.311Z,0.00
2024-02-04T17:59:11.257Z,0.00
2024-02-04T18:00:11.257Z,0.00
2024-02-04T18:01:11.265Z,0.00
2024-02-04T18:02:11.215Z,0.00
2024-02-04T18:03:11.224Z,0.00
2024-02-04T18:04:11.304Z,0.00
2024-02-04T18:05:11.340Z,0.00
2024-02-04T18:06:11.186Z,0.00
2024-02-04T18:07:11.298Z,0.00
2024-02-04T18:08:11.282Z,0.00
2024-02-04T18:09:11.266Z,0.00
2024-02-04T18:10:11.583Z,0.00
2024-02-04T18:11:11.093Z,0.00
2024-02-04T18:12:11.088Z,0.00
2024-02-04T18:13:11.137Z,0.00
2024-02-04T18:14:11.070Z,0.00
2024-02-04T18:15:11.085Z,0.00
2024-02-04T18:16:11.164Z,0.00
2024-02-04T18:17:11.031Z,0.00